sensor_id;sensor_type;location;lat;lon;timestamp;P1;durP1;ratioP1;P2;durP2;ratioP2
54835;SDS011;43486;43.574;1.476;2023-04-10T00:02:22;4.72;;;2.55;;
54835;SDS011;43486;43.574;1.476;2023-04-10T00:04:48;6.50;;;2.80;;
54835;SDS011;43486;43.574;1.476;2023-04-10T00:07:13;6.00;;;3.20;;
54835;SDS011;43486;43.574;1.476;2023-04-10T00:09:38;5.55;;;3.08;;
54835;SDS011;43486;43.574;1.476;2023-04-10T00:12:04;6.68;;;2.90;;
54835;SDS011;43486;43.574;1.476;2023-04-10T00:14:30;5.50;;;2.45;;
54835;SDS011;43486;43.574;1.476;2023-04-10T00:16:55;10.77;;;3.22;;
54835;SDS011;43486;43.574;1.476;2023-04-10T00:19:21;5.47;;;2.95;;
54835;SDS011;43486;43.574;1.476;2023-04-10T00:21:46;10.02;;;3.78;;
54835;SDS011;43486;43.574;1.476;2023-04-10T00:24:12;5.07;;;2.53;;
54835;SDS011;43486;43.574;1.476;2023-04-10T00:26:37;3.67;;;2.22;;
54835;SDS011;43486;43.574;1.476;2023-04-10T00:29:02;5.95;;;3.35;;
54835;SDS011;43486;43.574;1.476;2023-04-10T00:31:28;9.45;;;2.45;;
54835;SDS011;43486;43.574;1.476;2023-04-10T00:33:54;7.30;;;3.05;;
54835;SDS011;43486;43.574;1.476;2023-04-10T00:36:20;8.40;;;3.40;;
54835;SDS011;43486;43.574;1.476;2023-04-10T00:38:45;6.15;;;3.22;;
54835;SDS011;43486;43.574;1.476;2023-04-10T00:41:11;4.85;;;2.78;;
54835;SDS011;43486;43.574;1.476;2023-04-10T00:43:37;4.63;;;2.55;;
54835;SDS011;43486;43.574;1.476;2023-04-10T00:46:03;7.10;;;2.85;;
54835;SDS011;43486;43.574;1.476;2023-04-10T00:48:28;6.00;;;2.55;;
54835;SDS011;43486;43.574;1.476;2023-04-10T00:50:54;6.35;;;3.10;;
54835;SDS011;43486;43.574;1.476;2023-04-10T00:53:19;4.30;;;2.58;;
54835;SDS011;43486;43.574;1.476;2023-04-10T00:55:46;5.20;;;3.13;;
54835;SDS011;43486;43.574;1.476;2023-04-10T00:58:12;6.47;;;2.50;;
54835;SDS011;43486;43.574;1.476;2023-04-10T01:00:38;7.55;;;2.47;;
54835;SDS011;43486;43.574;1.476;2023-04-10T01:03:05;4.20;;;2.75;;
54835;SDS011;43486;43.574;1.476;2023-04-10T01:05:32;7.13;;;3.28;;
54835;SDS011;43486;43.574;1.476;2023-04-10T01:11:06;5.10;;;2.60;;
54835;SDS011;43486;43.574;1.476;2023-04-10T01:16:15;5.32;;;3.05;;
54835;SDS011;43486;43.574;1.476;2023-04-10T01:18:59;5.97;;;3.15;;
54835;SDS011;43486;43.574;1.476;2023-04-10T01:21:28;4.13;;;2.33;;
54835;SDS011;43486;43.574;1.476;2023-04-10T01:29:20;6.78;;;2.30;;
54835;SDS011;43486;43.574;1.476;2023-04-10T01:31:52;5.68;;;2.90;;
54835;SDS011;43486;43.574;1.476;2023-04-10T01:34:24;6.35;;;2.67;;
54835;SDS011;43486;43.574;1.476;2023-04-10T01:37:00;7.60;;;3.15;;
54835;SDS011;43486;43.574;1.476;2023-04-10T01:39:26;8.80;;;2.80;;
54835;SDS011;43486;43.574;1.476;2023-04-10T01:41:53;8.23;;;2.65;;
54835;SDS011;43486;43.574;1.476;2023-04-10T01:44:24;7.75;;;3.33;;
54835;SDS011;43486;43.574;1.476;2023-04-10T01:46:53;4.95;;;2.22;;
54835;SDS011;43486;43.574;1.476;2023-04-10T01:49:20;4.70;;;2.45;;
54835;SDS011;43486;43.574;1.476;2023-04-10T01:51:46;2.47;;;1.60;;
54835;SDS011;43486;43.574;1.476;2023-04-10T01:54:12;4.55;;;2.58;;
54835;SDS011;43486;43.574;1.476;2023-04-10T01:56:37;4.57;;;2.20;;
54835;SDS011;43486;43.574;1.476;2023-04-10T01:59:03;6.40;;;2.92;;
54835;SDS011;43486;43.574;1.476;2023-04-10T02:01:29;5.20;;;2.55;;
54835;SDS011;43486;43.574;1.476;2023-04-10T02:03:55;6.13;;;2.45;;
54835;SDS011;43486;43.574;1.476;2023-04-10T02:06:35;6.03;;;2.58;;
54835;SDS011;43486;43.574;1.476;2023-04-10T02:09:18;4.55;;;2.10;;
54835;SDS011;43486;43.574;1.476;2023-04-10T02:11:48;7.18;;;3.17;;
54835;SDS011;43486;43.574;1.476;2023-04-10T02:14:27;5.53;;;2.58;;
54835;SDS011;43486;43.574;1.476;2023-04-10T02:16:55;4.60;;;2.83;;
54835;SDS011;43486;43.574;1.476;2023-04-10T02:19:21;7.22;;;2.95;;
54835;SDS011;43486;43.574;1.476;2023-04-10T02:21:48;5.28;;;2.38;;
54835;SDS011;43486;43.574;1.476;2023-04-10T02:24:15;6.70;;;2.88;;
54835;SDS011;43486;43.574;1.476;2023-04-10T02:26:47;5.43;;;2.53;;
54835;SDS011;43486;43.574;1.476;2023-04-10T02:29:13;4.82;;;2.00;;
54835;SDS011;43486;43.574;1.476;2023-04-10T02:31:39;5.22;;;2.80;;
54835;SDS011;43486;43.574;1.476;2023-04-10T02:34:05;3.78;;;2.00;;
54835;SDS011;43486;43.574;1.476;2023-04-10T02:36:31;3.83;;;2.28;;
54835;SDS011;43486;43.574;1.476;2023-04-10T02:38:56;7.28;;;2.40;;
54835;SDS011;43486;43.574;1.476;2023-04-10T02:41:22;7.53;;;2.70;;
54835;SDS011;43486;43.574;1.476;2023-04-10T02:43:48;4.10;;;2.35;;
54835;SDS011;43486;43.574;1.476;2023-04-10T02:46:13;6.35;;;2.50;;
54835;SDS011;43486;43.574;1.476;2023-04-10T02:48:39;6.53;;;2.58;;
54835;SDS011;43486;43.574;1.476;2023-04-10T02:51:04;4.70;;;2.20;;
54835;SDS011;43486;43.574;1.476;2023-04-10T02:53:31;7.15;;;3.00;;
54835;SDS011;43486;43.574;1.476;2023-04-10T02:55:57;6.82;;;2.70;;
54835;SDS011;43486;43.574;1.476;2023-04-10T02:58:22;12.82;;;2.53;;
54835;SDS011;43486;43.574;1.476;2023-04-10T03:00:48;5.05;;;2.30;;
54835;SDS011;43486;43.574;1.476;2023-04-10T03:03:15;4.72;;;2.50;;
54835;SDS011;43486;43.574;1.476;2023-04-10T03:05:42;5.43;;;2.15;;
54835;SDS011;43486;43.574;1.476;2023-04-10T03:08:07;5.97;;;2.95;;
54835;SDS011;43486;43.574;1.476;2023-04-10T03:10:33;6.13;;;2.80;;
54835;SDS011;43486;43.574;1.476;2023-04-10T03:12:58;4.82;;;2.10;;
54835;SDS011;43486;43.574;1.476;2023-04-10T03:15:23;3.83;;;2.00;;
54835;SDS011;43486;43.574;1.476;2023-04-10T03:17:49;3.05;;;1.67;;
54835;SDS011;43486;43.574;1.476;2023-04-10T03:20:14;5.10;;;2.28;;
54835;SDS011;43486;43.574;1.476;2023-04-10T03:22:40;4.88;;;2.30;;
54835;SDS011;43486;43.574;1.476;2023-04-10T03:25:06;4.57;;;2.45;;
54835;SDS011;43486;43.574;1.476;2023-04-10T03:27:31;4.63;;;2.30;;
54835;SDS011;43486;43.574;1.476;2023-04-10T03:29:58;4.25;;;2.20;;
54835;SDS011;43486;43.574;1.476;2023-04-10T03:32:24;3.85;;;2.20;;
54835;SDS011;43486;43.574;1.476;2023-04-10T03:34:52;5.05;;;2.40;;
54835;SDS011;43486;43.574;1.476;2023-04-10T03:37:17;3.90;;;1.95;;
54835;SDS011;43486;43.574;1.476;2023-04-10T03:39:43;9.77;;;2.50;;
54835;SDS011;43486;43.574;1.476;2023-04-10T03:42:09;4.60;;;2.47;;
54835;SDS011;43486;43.574;1.476;2023-04-10T03:44:35;4.38;;;2.33;;
54835;SDS011;43486;43.574;1.476;2023-04-10T03:47:01;3.60;;;2.28;;
54835;SDS011;43486;43.574;1.476;2023-04-10T03:49:27;3.15;;;1.88;;
54835;SDS011;43486;43.574;1.476;2023-04-10T03:51:52;4.78;;;2.72;;
54835;SDS011;43486;43.574;1.476;2023-04-10T03:54:17;3.47;;;2.15;;
54835;SDS011;43486;43.574;1.476;2023-04-10T03:56:43;4.15;;;2.03;;
54835;SDS011;43486;43.574;1.476;2023-04-10T03:59:08;6.50;;;2.50;;
54835;SDS011;43486;43.574;1.476;2023-04-10T04:01:33;3.80;;;2.30;;
54835;SDS011;43486;43.574;1.476;2023-04-10T04:03:59;4.22;;;2.30;;
54835;SDS011;43486;43.574;1.476;2023-04-10T04:06:24;4.03;;;2.05;;
54835;SDS011;43486;43.574;1.476;2023-04-10T04:08:51;5.22;;;2.78;;
54835;SDS011;43486;43.574;1.476;2023-04-10T04:11:16;8.40;;;3.03;;
54835;SDS011;43486;43.574;1.476;2023-04-10T04:13:42;4.38;;;2.08;;
54835;SDS011;43486;43.574;1.476;2023-04-10T04:16:07;4.72;;;2.15;;
54835;SDS011;43486;43.574;1.476;2023-04-10T04:18:33;5.53;;;2.53;;
54835;SDS011;43486;43.574;1.476;2023-04-10T04:20:59;1.98;;;1.30;;
54835;SDS011;43486;43.574;1.476;2023-04-10T04:23:24;3.92;;;2.17;;
54835;SDS011;43486;43.574;1.476;2023-04-10T04:25:50;3.65;;;2.30;;
54835;SDS011;43486;43.574;1.476;2023-04-10T04:28:16;4.75;;;2.38;;
54835;SDS011;43486;43.574;1.476;2023-04-10T04:30:42;4.45;;;2.22;;
54835;SDS011;43486;43.574;1.476;2023-04-10T04:33:07;6.97;;;2.22;;
54835;SDS011;43486;43.574;1.476;2023-04-10T04:35:33;5.43;;;1.83;;
54835;SDS011;43486;43.574;1.476;2023-04-10T04:37:58;6.78;;;1.90;;
54835;SDS011;43486;43.574;1.476;2023-04-10T04:40:24;4.47;;;2.35;;
54835;SDS011;43486;43.574;1.476;2023-04-10T04:42:49;3.10;;;1.90;;
54835;SDS011;43486;43.574;1.476;2023-04-10T04:45:14;3.22;;;1.92;;
54835;SDS011;43486;43.574;1.476;2023-04-10T04:47:40;5.22;;;2.20;;
54835;SDS011;43486;43.574;1.476;2023-04-10T04:50:06;4.07;;;2.53;;
54835;SDS011;43486;43.574;1.476;2023-04-10T04:52:32;5.53;;;2.50;;
54835;SDS011;43486;43.574;1.476;2023-04-10T04:54:59;3.30;;;1.90;;
54835;SDS011;43486;43.574;1.476;2023-04-10T04:57:24;3.35;;;1.92;;
54835;SDS011;43486;43.574;1.476;2023-04-10T04:59:50;4.85;;;2.65;;
54835;SDS011;43486;43.574;1.476;2023-04-10T05:02:15;3.38;;;1.92;;
54835;SDS011;43486;43.574;1.476;2023-04-10T05:04:42;4.25;;;2.38;;
54835;SDS011;43486;43.574;1.476;2023-04-10T05:07:08;4.82;;;1.98;;
54835;SDS011;43486;43.574;1.476;2023-04-10T05:09:33;5.60;;;2.20;;
54835;SDS011;43486;43.574;1.476;2023-04-10T05:11:59;4.10;;;2.42;;
54835;SDS011;43486;43.574;1.476;2023-04-10T05:14:24;6.40;;;3.05;;
54835;SDS011;43486;43.574;1.476;2023-04-10T05:16:50;3.05;;;1.65;;
54835;SDS011;43486;43.574;1.476;2023-04-10T05:19:15;5.13;;;1.67;;
54835;SDS011;43486;43.574;1.476;2023-04-10T05:21:41;4.43;;;2.40;;
54835;SDS011;43486;43.574;1.476;2023-04-10T05:24:06;3.38;;;1.80;;
54835;SDS011;43486;43.574;1.476;2023-04-10T05:26:31;4.63;;;2.55;;
54835;SDS011;43486;43.574;1.476;2023-04-10T05:28:57;2.65;;;1.50;;
54835;SDS011;43486;43.574;1.476;2023-04-10T05:31:22;2.80;;;1.65;;
54835;SDS011;43486;43.574;1.476;2023-04-10T05:33:48;4.35;;;2.88;;
54835;SDS011;43486;43.574;1.476;2023-04-10T05:36:13;4.72;;;2.10;;
54835;SDS011;43486;43.574;1.476;2023-04-10T05:38:38;8.45;;;2.65;;
54835;SDS011;43486;43.574;1.476;2023-04-10T05:41:04;5.45;;;2.25;;
54835;SDS011;43486;43.574;1.476;2023-04-10T05:43:29;4.65;;;2.30;;
54835;SDS011;43486;43.574;1.476;2023-04-10T05:45:54;3.40;;;1.73;;
54835;SDS011;43486;43.574;1.476;2023-04-10T05:48:20;4.28;;;2.42;;
54835;SDS011;43486;43.574;1.476;2023-04-10T05:50:46;4.05;;;1.80;;
54835;SDS011;43486;43.574;1.476;2023-04-10T05:53:12;3.28;;;1.80;;
54835;SDS011;43486;43.574;1.476;2023-04-10T05:55:38;2.83;;;1.60;;
54835;SDS011;43486;43.574;1.476;2023-04-10T05:58:04;2.55;;;1.60;;
54835;SDS011;43486;43.574;1.476;2023-04-10T06:00:29;5.93;;;2.50;;
54835;SDS011;43486;43.574;1.476;2023-04-10T06:02:55;3.67;;;2.38;;
54835;SDS011;43486;43.574;1.476;2023-04-10T06:05:20;5.25;;;2.22;;
54835;SDS011;43486;43.574;1.476;2023-04-10T06:07:46;2.83;;;1.80;;
54835;SDS011;43486;43.574;1.476;2023-04-10T06:10:11;3.47;;;1.92;;
54835;SDS011;43486;43.574;1.476;2023-04-10T06:12:37;5.07;;;2.13;;
54835;SDS011;43486;43.574;1.476;2023-04-10T06:15:03;7.13;;;2.55;;
54835;SDS011;43486;43.574;1.476;2023-04-10T06:17:28;4.70;;;2.05;;
54835;SDS011;43486;43.574;1.476;2023-04-10T06:19:54;3.05;;;1.77;;
54835;SDS011;43486;43.574;1.476;2023-04-10T06:22:20;4.38;;;2.13;;
54835;SDS011;43486;43.574;1.476;2023-04-10T06:24:46;5.90;;;2.33;;
54835;SDS011;43486;43.574;1.476;2023-04-10T06:27:11;2.72;;;1.98;;
54835;SDS011;43486;43.574;1.476;2023-04-10T06:29:37;2.88;;;1.73;;
54835;SDS011;43486;43.574;1.476;2023-04-10T06:32:02;8.80;;;2.80;;
54835;SDS011;43486;43.574;1.476;2023-04-10T06:34:28;5.18;;;1.45;;
54835;SDS011;43486;43.574;1.476;2023-04-10T06:36:53;2.67;;;1.60;;
54835;SDS011;43486;43.574;1.476;2023-04-10T06:39:18;4.97;;;2.30;;
54835;SDS011;43486;43.574;1.476;2023-04-10T06:41:44;5.03;;;2.15;;
54835;SDS011;43486;43.574;1.476;2023-04-10T06:44:09;5.28;;;2.20;;
54835;SDS011;43486;43.574;1.476;2023-04-10T06:46:35;3.83;;;1.60;;
54835;SDS011;43486;43.574;1.476;2023-04-10T06:49:00;4.10;;;2.15;;
54835;SDS011;43486;43.574;1.476;2023-04-10T06:51:25;4.10;;;1.70;;
54835;SDS011;43486;43.574;1.476;2023-04-10T06:53:51;4.72;;;1.90;;
54835;SDS011;43486;43.574;1.476;2023-04-10T06:56:16;7.07;;;2.08;;
54835;SDS011;43486;43.574;1.476;2023-04-10T06:58:42;5.78;;;2.30;;
54835;SDS011;43486;43.574;1.476;2023-04-10T07:01:07;3.67;;;1.77;;
54835;SDS011;43486;43.574;1.476;2023-04-10T07:03:32;2.50;;;1.58;;
54835;SDS011;43486;43.574;1.476;2023-04-10T07:05:58;6.00;;;2.47;;
54835;SDS011;43486;43.574;1.476;2023-04-10T07:08:23;5.07;;;1.70;;
54835;SDS011;43486;43.574;1.476;2023-04-10T07:10:49;3.03;;;1.92;;
54835;SDS011;43486;43.574;1.476;2023-04-10T07:13:15;3.25;;;1.80;;
54835;SDS011;43486;43.574;1.476;2023-04-10T07:15:41;8.05;;;1.35;;
54835;SDS011;43486;43.574;1.476;2023-04-10T07:18:06;3.67;;;1.88;;
54835;SDS011;43486;43.574;1.476;2023-04-10T07:20:31;2.92;;;1.63;;
54835;SDS011;43486;43.574;1.476;2023-04-10T07:22:57;2.53;;;1.55;;
54835;SDS011;43486;43.574;1.476;2023-04-10T07:25:22;3.97;;;2.20;;
54835;SDS011;43486;43.574;1.476;2023-04-10T07:27:47;3.05;;;1.75;;
54835;SDS011;43486;43.574;1.476;2023-04-10T07:30:13;2.25;;;1.58;;
54835;SDS011;43486;43.574;1.476;2023-04-10T07:32:38;3.92;;;1.73;;
54835;SDS011;43486;43.574;1.476;2023-04-10T07:35:06;5.43;;;2.88;;
54835;SDS011;43486;43.574;1.476;2023-04-10T07:37:31;3.20;;;1.80;;
54835;SDS011;43486;43.574;1.476;2023-04-10T07:39:57;6.80;;;2.35;;
54835;SDS011;43486;43.574;1.476;2023-04-10T07:42:22;3.67;;;1.88;;
54835;SDS011;43486;43.574;1.476;2023-04-10T07:44:47;2.33;;;1.48;;
54835;SDS011;43486;43.574;1.476;2023-04-10T07:47:13;3.67;;;1.80;;
54835;SDS011;43486;43.574;1.476;2023-04-10T07:49:38;5.03;;;2.17;;
54835;SDS011;43486;43.574;1.476;2023-04-10T07:52:03;5.15;;;2.63;;
54835;SDS011;43486;43.574;1.476;2023-04-10T07:54:32;5.75;;;2.72;;
54835;SDS011;43486;43.574;1.476;2023-04-10T07:56:58;2.97;;;1.70;;
54835;SDS011;43486;43.574;1.476;2023-04-10T07:59:24;4.80;;;2.17;;
54835;SDS011;43486;43.574;1.476;2023-04-10T08:01:49;3.95;;;2.28;;
54835;SDS011;43486;43.574;1.476;2023-04-10T08:04:14;4.68;;;2.38;;
54835;SDS011;43486;43.574;1.476;2023-04-10T08:06:40;4.32;;;2.63;;
54835;SDS011;43486;43.574;1.476;2023-04-10T08:09:05;4.95;;;2.15;;
54835;SDS011;43486;43.574;1.476;2023-04-10T08:11:31;3.67;;;2.15;;
54835;SDS011;43486;43.574;1.476;2023-04-10T08:13:59;3.97;;;2.30;;
54835;SDS011;43486;43.574;1.476;2023-04-10T08:16:26;2.83;;;2.08;;
54835;SDS011;43486;43.574;1.476;2023-04-10T08:18:53;4.68;;;2.60;;
54835;SDS011;43486;43.574;1.476;2023-04-10T08:21:20;6.93;;;2.38;;
54835;SDS011;43486;43.574;1.476;2023-04-10T08:23:46;4.63;;;2.33;;
54835;SDS011;43486;43.574;1.476;2023-04-10T08:26:15;5.85;;;2.38;;
54835;SDS011;43486;43.574;1.476;2023-04-10T08:28:40;3.85;;;1.90;;
54835;SDS011;43486;43.574;1.476;2023-04-10T08:31:10;5.25;;;2.78;;
54835;SDS011;43486;43.574;1.476;2023-04-10T08:33:36;4.45;;;2.25;;
54835;SDS011;43486;43.574;1.476;2023-04-10T08:36:01;6.18;;;2.58;;
54835;SDS011;43486;43.574;1.476;2023-04-10T08:38:27;6.45;;;2.95;;
54835;SDS011;43486;43.574;1.476;2023-04-10T08:40:52;7.38;;;2.40;;
54835;SDS011;43486;43.574;1.476;2023-04-10T08:43:18;3.33;;;1.83;;
54835;SDS011;43486;43.574;1.476;2023-04-10T08:45:44;4.55;;;2.20;;
54835;SDS011;43486;43.574;1.476;2023-04-10T08:48:10;5.00;;;1.98;;
54835;SDS011;43486;43.574;1.476;2023-04-10T08:50:37;5.68;;;2.72;;
54835;SDS011;43486;43.574;1.476;2023-04-10T08:53:09;6.95;;;2.88;;
54835;SDS011;43486;43.574;1.476;2023-04-10T08:55:37;4.55;;;2.42;;
54835;SDS011;43486;43.574;1.476;2023-04-10T08:58:03;8.40;;;2.63;;
54835;SDS011;43486;43.574;1.476;2023-04-10T09:00:29;4.85;;;2.33;;
54835;SDS011;43486;43.574;1.476;2023-04-10T09:02:58;6.50;;;2.38;;
54835;SDS011;43486;43.574;1.476;2023-04-10T09:05:25;5.07;;;2.35;;
54835;SDS011;43486;43.574;1.476;2023-04-10T09:07:51;6.85;;;2.03;;
54835;SDS011;43486;43.574;1.476;2023-04-10T09:10:16;5.95;;;2.40;;
54835;SDS011;43486;43.574;1.476;2023-04-10T09:12:45;4.28;;;2.40;;
54835;SDS011;43486;43.574;1.476;2023-04-10T09:15:11;4.10;;;2.40;;
54835;SDS011;43486;43.574;1.476;2023-04-10T09:17:38;6.28;;;2.67;;
54835;SDS011;43486;43.574;1.476;2023-04-10T09:20:19;4.55;;;2.45;;
54835;SDS011;43486;43.574;1.476;2023-04-10T09:22:45;5.78;;;2.08;;
54835;SDS011;43486;43.574;1.476;2023-04-10T09:25:27;5.60;;;2.92;;
54835;SDS011;43486;43.574;1.476;2023-04-10T09:28:05;4.82;;;2.50;;
54835;SDS011;43486;43.574;1.476;2023-04-10T09:30:35;4.90;;;2.83;;
54835;SDS011;43486;43.574;1.476;2023-04-10T09:33:38;10.20;;;3.45;;
54835;SDS011;43486;43.574;1.476;2023-04-10T09:35:57;6.93;;;3.03;;
54835;SDS011;43486;43.574;1.476;2023-04-10T09:38:24;5.05;;;2.60;;
54835;SDS011;43486;43.574;1.476;2023-04-10T09:40:50;11.25;;;3.60;;
54835;SDS011;43486;43.574;1.476;2023-04-10T09:43:25;4.55;;;2.95;;
54835;SDS011;43486;43.574;1.476;2023-04-10T09:45:54;5.25;;;2.85;;
54835;SDS011;43486;43.574;1.476;2023-04-10T09:48:22;5.03;;;2.42;;
54835;SDS011;43486;43.574;1.476;2023-04-10T09:50:48;5.30;;;2.78;;
54835;SDS011;43486;43.574;1.476;2023-04-10T09:53:18;7.47;;;2.47;;
54835;SDS011;43486;43.574;1.476;2023-04-10T09:55:45;5.93;;;2.83;;
54835;SDS011;43486;43.574;1.476;2023-04-10T09:58:14;8.55;;;2.83;;
54835;SDS011;43486;43.574;1.476;2023-04-10T10:00:41;4.93;;;3.05;;
54835;SDS011;43486;43.574;1.476;2023-04-10T10:03:10;4.22;;;2.42;;
54835;SDS011;43486;43.574;1.476;2023-04-10T10:05:43;5.55;;;2.92;;
54835;SDS011;43486;43.574;1.476;2023-04-10T10:08:10;5.20;;;2.75;;
54835;SDS011;43486;43.574;1.476;2023-04-10T10:10:46;9.57;;;3.85;;
54835;SDS011;43486;43.574;1.476;2023-04-10T10:13:20;6.57;;;3.17;;
54835;SDS011;43486;43.574;1.476;2023-04-10T10:16:14;4.75;;;2.78;;
54835;SDS011;43486;43.574;1.476;2023-04-10T10:18:44;5.63;;;3.10;;
54835;SDS011;43486;43.574;1.476;2023-04-10T10:21:13;6.35;;;2.72;;
54835;SDS011;43486;43.574;1.476;2023-04-10T10:23:39;5.25;;;2.33;;
54835;SDS011;43486;43.574;1.476;2023-04-10T10:26:07;6.40;;;2.40;;
54835;SDS011;43486;43.574;1.476;2023-04-10T10:28:33;4.82;;;2.40;;
54835;SDS011;43486;43.574;1.476;2023-04-10T10:31:01;4.07;;;2.33;;
54835;SDS011;43486;43.574;1.476;2023-04-10T10:33:27;6.03;;;2.28;;
54835;SDS011;43486;43.574;1.476;2023-04-10T10:35:56;4.53;;;2.50;;
54835;SDS011;43486;43.574;1.476;2023-04-10T10:38:24;7.00;;;3.13;;
54835;SDS011;43486;43.574;1.476;2023-04-10T10:41:01;5.68;;;3.05;;
54835;SDS011;43486;43.574;1.476;2023-04-10T10:44:05;5.40;;;2.63;;
54835;SDS011;43486;43.574;1.476;2023-04-10T10:48:57;8.73;;;3.38;;
54835;SDS011;43486;43.574;1.476;2023-04-10T10:51:22;9.02;;;3.33;;
54835;SDS011;43486;43.574;1.476;2023-04-10T10:53:48;4.20;;;2.75;;
54835;SDS011;43486;43.574;1.476;2023-04-10T11:01:13;5.85;;;2.78;;
54835;SDS011;43486;43.574;1.476;2023-04-10T11:03:39;5.13;;;2.53;;
54835;SDS011;43486;43.574;1.476;2023-04-10T11:06:06;5.75;;;2.63;;
54835;SDS011;43486;43.574;1.476;2023-04-10T11:11:03;3.58;;;1.92;;
54835;SDS011;43486;43.574;1.476;2023-04-10T11:13:30;5.13;;;3.17;;
54835;SDS011;43486;43.574;1.476;2023-04-10T11:15:56;6.10;;;3.35;;
54835;SDS011;43486;43.574;1.476;2023-04-10T11:21:13;6.32;;;2.95;;
54835;SDS011;43486;43.574;1.476;2023-04-10T11:34:21;5.55;;;2.50;;
54835;SDS011;43486;43.574;1.476;2023-04-10T11:36:46;5.75;;;3.35;;
54835;SDS011;43486;43.574;1.476;2023-04-10T11:39:12;6.18;;;3.03;;
54835;SDS011;43486;43.574;1.476;2023-04-10T11:42:01;5.45;;;3.28;;
54835;SDS011;43486;43.574;1.476;2023-04-10T11:44:33;6.32;;;2.95;;
54835;SDS011;43486;43.574;1.476;2023-04-10T11:47:03;5.75;;;2.88;;
54835;SDS011;43486;43.574;1.476;2023-04-10T11:49:30;6.85;;;2.72;;
54835;SDS011;43486;43.574;1.476;2023-04-10T11:51:57;7.00;;;3.17;;
54835;SDS011;43486;43.574;1.476;2023-04-10T11:54:25;6.93;;;2.78;;
54835;SDS011;43486;43.574;1.476;2023-04-10T11:59:27;5.43;;;2.65;;
54835;SDS011;43486;43.574;1.476;2023-04-10T12:02:01;6.03;;;3.33;;
54835;SDS011;43486;43.574;1.476;2023-04-10T12:04:38;6.80;;;3.30;;
54835;SDS011;43486;43.574;1.476;2023-04-10T12:07:04;6.75;;;3.70;;
54835;SDS011;43486;43.574;1.476;2023-04-10T12:09:29;8.00;;;3.38;;
54835;SDS011;43486;43.574;1.476;2023-04-10T12:11:56;5.10;;;2.97;;
54835;SDS011;43486;43.574;1.476;2023-04-10T12:14:43;9.88;;;3.17;;
54835;SDS011;43486;43.574;1.476;2023-04-10T12:17:09;4.90;;;3.03;;
54835;SDS011;43486;43.574;1.476;2023-04-10T12:19:36;5.15;;;2.83;;
54835;SDS011;43486;43.574;1.476;2023-04-10T12:22:02;6.95;;;2.85;;
54835;SDS011;43486;43.574;1.476;2023-04-10T12:24:46;6.63;;;3.58;;
54835;SDS011;43486;43.574;1.476;2023-04-10T12:29:41;7.25;;;3.45;;
54835;SDS011;43486;43.574;1.476;2023-04-10T12:32:07;9.15;;;3.20;;
54835;SDS011;43486;43.574;1.476;2023-04-10T12:34:33;7.05;;;3.10;;
54835;SDS011;43486;43.574;1.476;2023-04-10T12:36:58;6.13;;;4.10;;
54835;SDS011;43486;43.574;1.476;2023-04-10T12:39:24;5.00;;;2.85;;
54835;SDS011;43486;43.574;1.476;2023-04-10T12:41:50;6.15;;;3.20;;
54835;SDS011;43486;43.574;1.476;2023-04-10T12:44:16;6.55;;;2.80;;
54835;SDS011;43486;43.574;1.476;2023-04-10T12:46:43;11.02;;;3.47;;
54835;SDS011;43486;43.574;1.476;2023-04-10T12:49:16;5.75;;;3.00;;
54835;SDS011;43486;43.574;1.476;2023-04-10T12:51:43;4.50;;;2.72;;
54835;SDS011;43486;43.574;1.476;2023-04-10T12:54:09;6.38;;;3.35;;
54835;SDS011;43486;43.574;1.476;2023-04-10T12:56:41;5.78;;;2.50;;
54835;SDS011;43486;43.574;1.476;2023-04-10T12:59:07;5.57;;;3.13;;
54835;SDS011;43486;43.574;1.476;2023-04-10T13:01:32;5.78;;;2.67;;
54835;SDS011;43486;43.574;1.476;2023-04-10T13:03:58;4.07;;;2.78;;
54835;SDS011;43486;43.574;1.476;2023-04-10T13:06:23;4.05;;;2.33;;
54835;SDS011;43486;43.574;1.476;2023-04-10T13:08:48;7.35;;;2.95;;
54835;SDS011;43486;43.574;1.476;2023-04-10T13:11:16;9.45;;;4.47;;
54835;SDS011;43486;43.574;1.476;2023-04-10T13:13:42;6.07;;;3.10;;
54835;SDS011;43486;43.574;1.476;2023-04-10T13:16:07;8.60;;;2.95;;
54835;SDS011;43486;43.574;1.476;2023-04-10T13:18:36;10.45;;;3.72;;
54835;SDS011;43486;43.574;1.476;2023-04-10T13:21:02;11.13;;;4.55;;
54835;SDS011;43486;43.574;1.476;2023-04-10T13:23:28;12.15;;;3.17;;
54835;SDS011;43486;43.574;1.476;2023-04-10T13:25:53;5.18;;;3.35;;
54835;SDS011;43486;43.574;1.476;2023-04-10T13:28:20;5.05;;;3.00;;
54835;SDS011;43486;43.574;1.476;2023-04-10T13:30:46;5.95;;;3.28;;
54835;SDS011;43486;43.574;1.476;2023-04-10T13:33:12;4.45;;;2.42;;
54835;SDS011;43486;43.574;1.476;2023-04-10T13:35:37;6.13;;;2.85;;
54835;SDS011;43486;43.574;1.476;2023-04-10T13:38:03;11.43;;;3.38;;
54835;SDS011;43486;43.574;1.476;2023-04-10T13:40:29;7.47;;;3.08;;
54835;SDS011;43486;43.574;1.476;2023-04-10T13:42:55;7.25;;;3.17;;
54835;SDS011;43486;43.574;1.476;2023-04-10T13:45:20;7.05;;;3.03;;
54835;SDS011;43486;43.574;1.476;2023-04-10T13:47:46;5.28;;;3.25;;
54835;SDS011;43486;43.574;1.476;2023-04-10T13:50:11;5.88;;;3.15;;
54835;SDS011;43486;43.574;1.476;2023-04-10T13:52:36;5.38;;;2.83;;
54835;SDS011;43486;43.574;1.476;2023-04-10T13:55:02;8.15;;;3.72;;
54835;SDS011;43486;43.574;1.476;2023-04-10T13:57:28;6.22;;;4.13;;
54835;SDS011;43486;43.574;1.476;2023-04-10T13:59:53;5.93;;;3.17;;
54835;SDS011;43486;43.574;1.476;2023-04-10T14:02:19;6.85;;;3.78;;
54835;SDS011;43486;43.574;1.476;2023-04-10T14:04:44;5.97;;;2.40;;
54835;SDS011;43486;43.574;1.476;2023-04-10T14:07:10;4.55;;;2.90;;
54835;SDS011;43486;43.574;1.476;2023-04-10T14:09:36;6.00;;;3.15;;
54835;SDS011;43486;43.574;1.476;2023-04-10T14:12:01;9.50;;;3.47;;
54835;SDS011;43486;43.574;1.476;2023-04-10T14:14:27;6.97;;;3.47;;
54835;SDS011;43486;43.574;1.476;2023-04-10T14:16:52;10.85;;;3.63;;
54835;SDS011;43486;43.574;1.476;2023-04-10T14:19:18;5.03;;;3.03;;
54835;SDS011;43486;43.574;1.476;2023-04-10T14:21:43;6.22;;;3.42;;
54835;SDS011;43486;43.574;1.476;2023-04-10T14:24:09;7.20;;;3.63;;
54835;SDS011;43486;43.574;1.476;2023-04-10T14:26:35;9.38;;;4.13;;
54835;SDS011;43486;43.574;1.476;2023-04-10T14:29:00;7.57;;;3.78;;
54835;SDS011;43486;43.574;1.476;2023-04-10T14:31:26;8.90;;;3.80;;
54835;SDS011;43486;43.574;1.476;2023-04-10T14:33:51;6.32;;;3.53;;
54835;SDS011;43486;43.574;1.476;2023-04-10T14:36:16;5.78;;;3.13;;
54835;SDS011;43486;43.574;1.476;2023-04-10T14:38:42;6.30;;;3.22;;
54835;SDS011;43486;43.574;1.476;2023-04-10T14:41:07;6.50;;;3.20;;
54835;SDS011;43486;43.574;1.476;2023-04-10T14:43:33;4.75;;;2.67;;
54835;SDS011;43486;43.574;1.476;2023-04-10T14:45:58;6.10;;;3.55;;
54835;SDS011;43486;43.574;1.476;2023-04-10T14:48:24;8.02;;;3.55;;
54835;SDS011;43486;43.574;1.476;2023-04-10T14:50:49;6.00;;;3.45;;
54835;SDS011;43486;43.574;1.476;2023-04-10T14:53:15;5.60;;;3.10;;
54835;SDS011;43486;43.574;1.476;2023-04-10T14:55:40;6.70;;;3.38;;
54835;SDS011;43486;43.574;1.476;2023-04-10T14:58:06;6.93;;;3.47;;
54835;SDS011;43486;43.574;1.476;2023-04-10T15:00:33;5.38;;;3.35;;
54835;SDS011;43486;43.574;1.476;2023-04-10T15:02:59;7.43;;;3.35;;
54835;SDS011;43486;43.574;1.476;2023-04-10T15:05:24;5.43;;;3.55;;
54835;SDS011;43486;43.574;1.476;2023-04-10T15:07:50;4.38;;;2.80;;
54835;SDS011;43486;43.574;1.476;2023-04-10T15:10:16;6.95;;;3.15;;
54835;SDS011;43486;43.574;1.476;2023-04-10T15:12:41;7.50;;;3.33;;
54835;SDS011;43486;43.574;1.476;2023-04-10T15:15:07;4.95;;;2.85;;
54835;SDS011;43486;43.574;1.476;2023-04-10T15:17:33;7.30;;;3.38;;
54835;SDS011;43486;43.574;1.476;2023-04-10T15:19:58;5.63;;;3.30;;
54835;SDS011;43486;43.574;1.476;2023-04-10T15:22:24;7.85;;;3.65;;
54835;SDS011;43486;43.574;1.476;2023-04-10T15:24:50;7.25;;;3.67;;
54835;SDS011;43486;43.574;1.476;2023-04-10T15:27:15;7.30;;;3.45;;